Time;durP1;ratioP1;P1;durP2;ratioP2;P2;SDS_P1;SDS_P2;PMS_P1;PMS_P2;Temp;Humidity;BMP_temperature;BMP_pressure;BME280_temperature;BME280_humidity;BME280_pressure;Samples;Min_cycle;Max_cycle;Signal;HPM_P1;HPM_P2
2021/04/27 00:01:34;;;;;;;15.07;7.40;;;12.70;99.90;;;;;;5033344;28;20515;-79
2021/04/27 00:04:00;;;;;;;17.30;7.47;;;12.70;99.90;;;;;;5043317;28;20108;-79
2021/04/27 00:06:26;;;;;;;19.50;6.95;;;12.70;99.90;;;;;;5050367;28;20032;-79
2021/04/27 00:08:52;;;;;;;13.00;7.90;;;12.70;99.90;;;;;;5044994;28;20104;-79
2021/04/27 00:11:18;;;;;;;12.63;6.90;;;12.70;99.90;;;;;;5050635;28;20112;-79
2021/04/27 00:13:44;;;;;;;11.07;6.53;;;12.70;99.90;;;;;;5044604;28;20032;-79
2021/04/27 00:16:10;;;;;;;16.13;7.00;;;12.70;99.90;;;;;;5048740;28;20037;-79
2021/04/27 00:18:36;;;;;;;13.93;7.60;;;12.60;99.90;;;;;;5043226;28;20036;-78
2021/04/27 00:21:02;;;;;;;11.80;7.68;;;12.50;99.90;;;;;;5050683;28;20029;-79
2021/04/27 00:23:28;;;;;;;11.75;7.22;;;12.50;99.90;;;;;;5043967;28;20048;-79
2021/04/27 00:25:54;;;;;;;16.02;8.35;;;12.40;99.90;;;;;;5052162;28;20613;-79
2021/04/27 00:28:20;;;;;;;15.50;7.57;;;12.40;99.90;;;;;;5043971;28;20033;-79
2021/04/27 00:30:46;;;;;;;13.40;7.85;;;12.40;99.90;;;;;;5033167;28;20041;-79
2021/04/27 00:33:11;;;;;;;17.13;8.02;;;12.40;99.90;;;;;;5044313;28;20022;-79
2021/04/27 00:35:37;;;;;;;10.52;8.07;;;12.30;99.90;;;;;;5033009;28;20040;-79
2021/04/27 00:38:03;;;;;;;12.93;8.07;;;12.30;99.90;;;;;;5041473;28;20064;-79
2021/04/27 00:40:31;;;;;;;12.93;7.93;;;12.40;99.90;;;;;;5052058;28;20029;-79
2021/04/27 00:42:58;;;;;;;14.45;8.35;;;12.30;99.90;;;;;;5040723;28;20129;-79
2021/04/27 00:45:27;;;;;;;17.20;8.82;;;12.40;99.90;;;;;;5051650;28;20032;-79
2021/04/27 00:47:54;;;;;;;12.82;8.43;;;12.40;99.90;;;;;;5040764;28;20026;-78
2021/04/27 00:50:29;;;;;;;12.70;7.63;;;12.30;99.90;;;;;;5052852;28;20072;-77
2021/04/27 00:52:56;;;;;;;17.38;8.63;;;12.30;99.90;;;;;;5040312;28;20025;-77
2021/04/27 00:55:25;;;;;;;12.65;8.32;;;12.30;99.90;;;;;;5049147;28;20127;-78
2021/04/27 00:57:52;;;;;;;14.95;8.52;;;12.30;99.90;;;;;;5020675;28;20030;-79
2021/04/27 01:00:24;;;;;;;14.90;8.32;;;12.20;99.90;;;;;;5019283;28;20041;-79
2021/04/27 01:02:50;;;;;;;15.73;7.75;;;12.20;99.90;;;;;;5037515;28;20052;-79
2021/04/27 01:05:23;;;;;;;15.52;8.27;;;12.20;99.90;;;;;;5052683;28;20045;-78
2021/04/27 01:08:16;;;;;;;16.13;7.63;;;12.20;99.90;;;;;;5040051;28;20401;-77
2021/04/27 01:11:02;;;;;;;17.52;8.50;;;12.20;99.90;;;;;;5050116;28;20064;-78
2021/04/27 01:13:45;;;;;;;16.60;8.68;;;12.20;99.90;;;;;;5042351;28;20071;-78
2021/04/27 01:16:14;;;;;;;20.67;8.65;;;12.20;99.90;;;;;;5048942;28;20029;-78
2021/04/27 01:18:43;;;;;;;15.10;9.57;;;12.20;99.90;;;;;;5043473;28;20013;-78
2021/04/27 01:21:10;;;;;;;17.52;8.52;;;12.20;99.90;;;;;;5047211;28;20036;-80
2021/04/27 01:24:17;;;;;;;16.75;8.23;;;12.20;99.90;;;;;;5043516;28;20104;-78
2021/04/27 01:26:59;;;;;;;15.20;8.30;;;12.20;99.90;;;;;;5048151;28;20040;-78
2021/04/27 01:29:28;;;;;;;13.35;8.95;;;12.20;99.90;;;;;;5046165;28;20361;-79
2021/04/27 01:31:57;;;;;;;12.00;8.27;;;12.20;99.90;;;;;;5046653;28;20391;-78
2021/04/27 01:34:27;;;;;;;13.10;8.90;;;12.10;99.90;;;;;;5046123;28;20040;-79
2021/04/27 01:36:53;;;;;;;12.48;8.48;;;12.10;99.90;;;;;;5046568;28;20037;-78
2021/04/27 01:39:20;;;;;;;16.08;8.60;;;12.10;99.90;;;;;;5045232;28;20052;-78
2021/04/27 01:41:47;;;;;;;13.73;8.35;;;12.10;99.90;;;;;;5046137;28;20041;-78
2021/04/27 01:44:14;;;;;;;11.60;8.40;;;12.10;99.90;;;;;;5044478;28;20025;-78
2021/04/27 01:46:43;;;;;;;15.20;9.32;;;12.10;99.90;;;;;;5048128;28;20036;-77
2021/04/27 01:49:09;;;;;;;16.92;9.05;;;12.10;99.90;;;;;;5043756;28;20059;-78
2021/04/27 01:51:35;;;;;;;19.20;9.98;;;12.00;99.90;;;;;;5064221;28;20047;-78
2021/04/27 01:54:03;;;;;;;17.10;9.57;;;12.00;99.90;;;;;;5065890;28;20498;-78
2021/04/27 01:56:29;;;;;;;26.73;10.43;;;12.00;99.90;;;;;;5051014;28;20106;-78
2021/04/27 01:58:55;;;;;;;13.45;9.63;;;12.10;99.90;;;;;;5046956;28;20072;-79
2021/04/27 02:01:21;;;;;;;19.60;10.48;;;12.10;99.90;;;;;;5071085;28;20056;-78
2021/04/27 02:03:48;;;;;;;13.98;10.02;;;12.10;99.90;;;;;;5066762;28;20041;-78
2021/04/27 02:06:14;;;;;;;15.93;10.00;;;11.90;99.90;;;;;;5035530;28;20491;-77
2021/04/27 02:08:45;;;;;;;21.08;10.80;;;11.90;99.90;;;;;;5043187;28;20067;-77
2021/04/27 02:11:10;;;;;;;18.48;11.15;;;11.80;99.90;;;;;;5048284;28;20036;-77
2021/04/27 02:13:37;;;;;;;15.32;10.18;;;11.80;99.90;;;;;;5042609;28;20017;-79
2021/04/27 02:16:04;;;;;;;15.60;11.00;;;11.80;99.90;;;;;;5048582;28;20037;-77
2021/04/27 02:18:44;;;;;;;18.85;10.85;;;11.70;99.90;;;;;;5042345;28;20032;-77
2021/04/27 02:21:12;;;;;;;14.80;10.77;;;11.70;99.90;;;;;;5047591;28;20043;-78
2021/04/27 02:23:38;;;;;;;;;;;11.60;99.90;;;;;;5042550;28;20625;-77
2021/04/27 02:26:03;;;;;;;22.45;11.13;;;11.60;99.90;;;;;;5047386;28;20003;-77
2021/04/27 02:28:32;;;;;;;20.02;12.20;;;11.60;99.90;;;;;;5042388;28;20152;-78
2021/04/27 02:30:59;;;;;;;19.40;10.57;;;11.70;99.90;;;;;;5048789;28;20029;-77
2021/04/27 02:33:25;;;;;;;17.23;10.23;;;11.70;99.90;;;;;;5041200;28;20024;-77
2021/04/27 02:35:52;;;;;;;18.25;11.50;;;11.70;99.90;;;;;;5049643;28;20428;-77
2021/04/27 02:38:22;;;;;;;15.30;11.23;;;11.70;99.90;;;;;;5037921;28;20017;-78
2021/04/27 02:40:56;;;;;;;17.38;11.10;;;11.60;99.90;;;;;;5049747;28;20411;-78
2021/04/27 02:43:24;;;;;;;20.98;11.35;;;11.70;99.90;;;;;;5039335;28;20060;-79
2021/04/27 02:45:50;;;;;;;19.67;11.90;;;11.70;99.90;;;;;;5048925;28;20415;-78
2021/04/27 02:48:18;;;;;;;19.42;11.93;;;11.60;99.90;;;;;;5041742;28;20021;-78
2021/04/27 02:50:48;;;;;;;19.63;13.02;;;11.60;99.90;;;;;;5030691;28;20028;-78
2021/04/27 02:53:15;;;;;;;16.90;10.77;;;11.60;99.90;;;;;;5039567;28;20036;-78
2021/04/27 02:55:42;;;;;;;16.60;10.85;;;11.60;99.90;;;;;;5049826;28;20408;-78
2021/04/27 02:58:08;;;;;;;23.95;12.60;;;11.60;99.90;;;;;;5039606;28;20025;-78
2021/04/27 03:00:34;;;;;;;18.48;11.10;;;11.60;99.90;;;;;;5049063;28;20045;-77
2021/04/27 03:03:00;;;;;;;16.13;10.77;;;11.60;99.90;;;;;;5038292;28;20030;-78
2021/04/27 03:05:26;;;;;;;19.45;10.65;;;11.70;99.90;;;;;;5050478;28;20116;-77
2021/04/27 03:07:52;;;;;;;19.02;11.52;;;11.70;99.90;;;;;;5037262;28;20164;-77
2021/04/27 03:10:19;;;;;;;19.38;11.38;;;11.70;99.90;;;;;;5049228;28;20028;-78
2021/04/27 03:12:44;;;;;;;16.40;11.25;;;11.80;99.90;;;;;;5038215;28;20080;-78
2021/04/27 03:15:11;;;;;;;22.33;11.27;;;11.80;99.90;;;;;;5050444;28;20025;-78
2021/04/27 03:17:37;;;;;;;19.83;11.00;;;11.80;99.90;;;;;;5038964;28;20033;-78
2021/04/27 03:20:05;;;;;;;17.13;11.43;;;11.80;99.90;;;;;;5049658;28;20218;-78
2021/04/27 03:22:31;;;;;;;17.88;11.10;;;11.80;99.90;;;;;;5039773;28;20041;-78
2021/04/27 03:24:57;;;;;;;20.23;10.80;;;11.80;99.90;;;;;;5048809;28;20017;-78
2021/04/27 03:27:22;;;;;;;20.42;11.00;;;11.80;99.90;;;;;;5040853;28;20496;-77
2021/04/27 03:29:48;;;;;;;17.95;10.70;;;11.90;99.90;;;;;;5047319;28;20104;-77
2021/04/27 03:32:14;;;;;;;20.65;11.27;;;11.90;99.90;;;;;;5037335;28;20040;-76
2021/04/27 03:34:40;;;;;;;17.98;10.88;;;11.90;99.90;;;;;;5027263;28;20018;-77
2021/04/27 03:37:05;;;;;;;17.65;11.82;;;11.90;99.90;;;;;;5027359;28;20037;-77
2021/04/27 03:39:32;;;;;;;16.80;10.38;;;11.80;99.90;;;;;;5047669;28;20025;-77
2021/04/27 03:41:57;;;;;;;15.30;10.00;;;11.80;99.90;;;;;;5046235;28;20033;-77
2021/04/27 03:44:23;;;;;;;14.77;9.35;;;11.90;99.90;;;;;;5039052;28;20026;-77
2021/04/27 03:46:50;;;;;;;15.77;9.30;;;11.80;99.90;;;;;;5036382;28;20041;-77
2021/04/27 03:49:15;;;;;;;16.58;9.90;;;11.90;99.90;;;;;;5041285;28;20035;-77
2021/04/27 03:51:41;;;;;;;15.32;9.95;;;11.90;99.90;;;;;;5039206;28;20029;-77
2021/04/27 03:54:07;;;;;;;14.57;10.52;;;11.90;99.90;;;;;;5045512;28;20060;-78
2021/04/27 03:56:33;;;;;;;16.42;10.20;;;11.90;99.90;;;;;;5050742;28;20039;-77
2021/04/27 03:58:59;;;;;;;19.92;9.73;;;12.00;99.90;;;;;;5043731;28;20036;-77
2021/04/27 04:01:25;;;;;;;17.08;10.07;;;12.00;99.90;;;;;;5050057;28;20513;-77
2021/04/27 04:03:50;;;;;;;20.63;10.40;;;12.00;99.90;;;;;;5044995;28;20079;-77
2021/04/27 04:06:16;;;;;;;17.33;10.77;;;12.00;99.90;;;;;;5050128;28;20057;-77
2021/04/27 04:08:42;;;;;;;18.88;11.30;;;12.00;99.90;;;;;;5044776;28;20364;-76
2021/04/27 04:11:07;;;;;;;15.98;10.85;;;11.90;99.90;;;;;;5050407;28;20040;-78
2021/04/27 04:13:33;;;;;;;19.05;10.75;;;12.00;99.90;;;;;;5044802;28;20444;-77
2021/04/27 04:15:59;;;;;;;21.02;11.25;;;12.00;99.90;;;;;;5049894;28;20040;-77
2021/04/27 04:18:25;;;;;;;17.70;11.02;;;12.10;99.90;;;;;;5043732;28;20104;-78
2021/04/27 04:20:52;;;;;;;19.55;11.60;;;12.00;99.90;;;;;;5052170;28;20040;-78
2021/04/27 04:23:18;;;;;;;19.23;11.68;;;11.90;99.90;;;;;;5040506;28;20543;-79
2021/04/27 04:25:44;;;;;;;23.63;11.80;;;11.90;99.90;;;;;;5052145;28;20479;-79
2021/04/27 04:28:10;;;;;;;22.98;12.70;;;12.00;99.90;;;;;;5042531;28;20066;-79
2021/04/27 04:30:36;;;;;;;20.67;12.20;;;12.10;99.90;;;;;;5053814;28;20436;-79
2021/04/27 04:33:03;;;;;;;22.83;11.60;;;12.10;99.90;;;;;;5038752;28;20029;-78
2021/04/27 04:35:30;;;;;;;13.38;9.88;;;12.10;99.90;;;;;;5053117;28;20057;-79
2021/04/27 04:37:56;;;;;;;;;;;12.10;99.90;;;;;;5044103;28;20033;-78
2021/04/27 04:40:22;;;;;;;17.85;10.80;;;12.10;99.90;;;;;;5033574;28;20003;-77
2021/04/27 04:42:48;;;;;;;20.65;10.25;;;12.10;99.90;;;;;;5038048;28;20128;-78
2021/04/27 04:45:15;;;;;;;18.13;10.68;;;12.10;99.90;;;;;;5053409;28;20021;-78
2021/04/27 04:47:41;;;;;;;;;;;12.20;99.90;;;;;;5046563;28;20029;-78
2021/04/27 04:50:10;;;;;;;13.68;9.23;;;12.20;99.90;;;;;;5032747;28;20425;-77
2021/04/27 04:52:36;;;;;;;14.88;9.60;;;12.20;99.90;;;;;;5043695;28;20119;-77
2021/04/27 04:55:03;;;;;;;14.95;8.50;;;12.40;99.90;;;;;;5033495;28;20451;-77
2021/04/27 04:57:29;;;;;;;;;;;12.40;99.90;;;;;;5038787;28;20079;-79
2021/04/27 04:59:54;;;;;;;18.75;10.13;;;12.40;99.90;;;;;;5050565;28;19912;-81
2021/04/27 05:02:20;;;;;;;18.20;10.05;;;12.50;99.90;;;;;;5044987;28;20032;-78
2021/04/27 05:04:46;;;;;;;21.13;10.65;;;12.60;99.90;;;;;;5035606;28;20026;-76
2021/04/27 05:07:13;;;;;;;15.90;10.25;;;12.60;99.90;;;;;;5037916;28;20078;-76
2021/04/27 05:09:40;;;;;;;20.30;10.27;;;12.50;99.90;;;;;;5048242;28;20029;-78
2021/04/27 05:12:07;;;;;;;22.17;11.98;;;12.50;99.90;;;;;;5045611;28;20080;-79
2021/04/27 05:14:35;;;;;;;19.75;11.93;;;12.50;99.90;;;;;;5047633;28;20460;-79
2021/04/27 05:17:01;;;;;;;20.05;11.55;;;12.50;99.90;;;;;;5035504;28;20064;-78
2021/04/27 05:19:27;;;;;;;25.15;12.43;;;12.50;99.90;;;;;;5043272;28;20563;-78
2021/04/27 05:21:53;;;;;;;17.35;10.82;;;12.50;99.90;;;;;;5034716;28;20061;-78
2021/04/27 05:24:21;;;;;;;20.63;12.05;;;12.40;99.90;;;;;;5038969;28;20013;-80
2021/04/27 05:26:46;;;;;;;21.65;11.48;;;12.50;99.90;;;;;;5036254;28;20056;-78
2021/04/27 05:29:13;;;;;;;19.33;11.18;;;12.50;99.90;;;;;;5044283;28;20403;-78
2021/04/27 05:31:39;;;;;;;20.17;12.18;;;12.60;99.90;;;;;;5044304;28;20021;-78
2021/04/27 05:34:05;;;;;;;20.70;11.95;;;12.60;99.90;;;;;;5034480;28;20055;-76
2021/04/27 05:36:30;;;;;;;21.83;12.48;;;12.70;99.90;;;;;;5046357;28;20033;-76
2021/04/27 05:38:56;;;;;;;16.60;11.82;;;12.60;99.90;;;;;;5040621;28;20040;-77
2021/04/27 05:41:22;;;;;;;22.83;12.73;;;12.70;99.90;;;;;;5034709;28;20068;-77
2021/04/27 05:43:50;;;;;;;20.95;12.13;;;12.70;99.90;;;;;;5051840;28;20036;-78
2021/04/27 05:46:16;;;;;;;25.48;12.15;;;12.70;99.90;;;;;;5046978;28;20028;-78
2021/04/27 05:48:42;;;;;;;19.45;12.30;;;12.80;99.90;;;;;;5044285;28;20032;-78
2021/04/27 05:51:08;;;;;;;19.83;11.60;;;12.80;99.90;;;;;;5053616;28;20056;-80
2021/04/27 05:53:33;;;;;;;20.75;13.00;;;12.80;99.90;;;;;;5054877;28;20475;-77
2021/04/27 05:55:59;;;;;;;19.00;11.60;;;12.80;99.90;;;;;;5050027;28;20104;-78
2021/04/27 05:58:25;;;;;;;19.27;11.13;;;12.80;99.90;;;;;;5054796;28;20035;-78
2021/04/27 06:00:53;;;;;;;19.05;10.85;;;12.90;99.90;;;;;;5071201;28;20045;-78
2021/04/27 06:03:19;;;;;;;17.58;10.15;;;12.90;99.90;;;;;;5046895;28;20029;-77
2021/04/27 06:05:45;;;;;;;15.10;10.38;;;12.90;99.90;;;;;;5032704;28;20044;-77
2021/04/27 06:08:11;;;;;;;17.35;9.80;;;12.80;99.90;;;;;;5040583;28;20033;-78
2021/04/27 06:10:36;;;;;;;13.93;9.13;;;12.90;99.90;;;;;;5051132;28;20017;-78
2021/04/27 06:13:02;;;;;;;15.35;8.77;;;12.90;99.90;;;;;;5042605;28;20036;-78
2021/04/27 06:15:28;;;;;;;15.25;9.55;;;12.90;99.90;;;;;;5031501;28;20472;-80
2021/04/27 06:17:53;;;;;;;16.42;10.13;;;12.90;99.90;;;;;;5037887;28;20108;-79
2021/04/27 06:20:19;;;;;;;18.23;8.60;;;12.90;99.90;;;;;;5050413;28;20131;-78
2021/04/27 06:22:45;;;;;;;15.07;8.93;;;13.00;99.90;;;;;;5039079;28;20047;-79
2021/04/27 06:25:11;;;;;;;16.80;9.15;;;12.90;99.90;;;;;;5051015;28;20032;-80
2021/04/27 06:27:38;;;;;;;15.57;8.55;;;13.00;99.90;;;;;;5039906;28;20024;-78
2021/04/27 06:30:09;;;;;;;16.40;8.63;;;13.00;99.90;;;;;;5052194;28;20033;-80
2021/04/27 06:32:35;;;;;;;15.73;8.52;;;13.00;99.90;;;;;;5047348;28;20021;-78
2021/04/27 06:35:02;;;;;;;14.23;8.20;;;12.90;99.90;;;;;;5031865;28;20030;-78
2021/04/27 06:37:28;;;;;;;12.82;7.65;;;13.00;99.90;;;;;;5043349;28;20017;-77
2021/04/27 06:39:54;;;;;;;14.32;8.23;;;13.00;99.90;;;;;;5031361;28;20087;-78
2021/04/27 06:42:19;;;;;;;14.35;8.65;;;13.00;99.90;;;;;;5036371;28;20485;-78
2021/04/27 06:44:45;;;;;;;16.20;8.18;;;13.00;99.90;;;;;;5047692;28;20025;-78
2021/04/27 06:47:11;;;;;;;15.75;8.25;;;13.00;99.90;;;;;;5043150;28;20048;-78
2021/04/27 06:49:37;;;;;;;14.75;8.90;;;13.10;99.90;;;;;;5046682;28;20029;-80
2021/04/27 06:52:05;;;;;;;13.65;7.55;;;13.10;99.90;;;;;;5044477;28;20536;-79
2021/04/27 06:54:31;;;;;;;12.60;8.20;;;13.10;99.90;;;;;;5045369;28;20036;-79
2021/04/27 06:56:58;;;;;;;11.40;7.43;;;13.20;99.90;;;;;;5044815;28;20025;-80
2021/04/27 06:59:30;;;;;;;10.10;6.78;;;13.20;99.90;;;;;;5044735;28;20276;-80
2021/04/27 07:01:56;;;;;;;13.32;7.22;;;13.20;99.90;;;;;;5043791;28;20048;-79
2021/04/27 07:04:22;;;;;;;14.27;7.00;;;13.20;99.90;;;;;;5044123;28;20387;-81
2021/04/27 07:06:48;;;;;;;12.40;7.47;;;13.20;99.90;;;;;;5044218;28;20044;-79
2021/04/27 07:09:14;;;;;;;11.63;7.18;;;13.20;99.90;;;;;;5043052;28;20013;-79
2021/04/27 07:11:39;;;;;;;12.05;6.63;;;13.20;99.90;;;;;;5045512;28;20075;-78
2021/04/27 07:14:05;;;;;;;10.55;7.05;;;13.30;99.90;;;;;;5041563;28;20013;-79
2021/04/27 07:16:31;;;;;;;11.52;7.72;;;13.20;99.90;;;;;;5047162;28;20025;-79
2021/04/27 07:18:56;;;;;;;10.80;7.07;;;13.30;99.90;;;;;;5041565;28;20033;-79
2021/04/27 07:21:23;;;;;;;11.10;7.25;;;13.40;99.90;;;;;;5046953;28;20042;-78
2021/04/27 07:23:49;;;;;;;9.57;7.55;;;13.50;99.90;;;;;;5041347;28;20109;-80
2021/04/27 07:26:15;;;;;;;9.30;6.00;;;13.40;99.90;;;;;;5045590;28;20395;-79
2021/04/27 07:28:41;;;;;;;9.68;7.05;;;13.50;99.90;;;;;;5049166;28;20029;-78
2021/04/27 07:31:07;;;;;;;10.90;7.13;;;13.50;99.90;;;;;;5047066;28;20029;-79
2021/04/27 07:33:32;;;;;;;13.25;6.13;;;13.60;99.90;;;;;;5034871;28;20439;-78
2021/04/27 07:35:58;;;;;;;10.35;6.07;;;13.70;99.90;;;;;;5029766;28;20029;-79
2021/04/27 07:38:24;;;;;;;14.05;6.80;;;13.60;99.90;;;;;;5040312;28;20109;-80
2021/04/27 07:40:50;;;;;;;10.25;6.40;;;13.60;99.90;;;;;;5031157;28;20103;-79
2021/04/27 07:43:16;;;;;;;10.77;6.30;;;13.80;99.90;;;;;;5038968;28;20021;-80
2021/04/27 07:45:42;;;;;;;11.43;6.40;;;13.80;99.90;;;;;;5049296;28;20021;-79
2021/04/27 07:48:09;;;;;;;9.45;6.60;;;13.90;99.90;;;;;;5037696;28;20035;-80
2021/04/27 07:50:35;;;;;;;9.57;6.63;;;14.00;99.80;;;;;;5050256;28;20032;-78
2021/04/27 07:53:02;;;;;;;9.98;5.97;;;14.00;99.80;;;;;;5041109;28;20116;-79
2021/04/27 07:55:28;;;;;;;12.15;5.97;;;14.10;99.90;;;;;;5030373;28;20033;-79
2021/04/27 07:57:54;;;;;;;13.50;6.05;;;14.10;99.70;;;;;;5037015;28;20026;-78
2021/04/27 08:00:21;;;;;;;8.00;5.35;;;14.20;99.30;;;;;;5049763;28;20621;-78
2021/04/27 08:02:49;;;;;;;10.98;6.13;;;14.20;99.20;;;;;;5037526;28;20484;-79
2021/04/27 08:05:15;;;;;;;10.07;5.63;;;14.30;99.20;;;;;;5029960;28;20026;-78
2021/04/27 08:07:41;;;;;;;9.43;5.40;;;14.40;98.80;;;;;;5040816;28;20029;-78
2021/04/27 08:10:09;;;;;;;5.80;4.35;;;14.50;98.70;;;;;;5049814;28;20383;-77
2021/04/27 08:12:35;;;;;;;7.88;4.82;;;14.50;98.20;;;;;;5038945;28;20100;-77
2021/04/27 08:15:00;;;;;;;6.80;4.50;;;14.70;98.20;;;;;;5048806;28;20017;-77
2021/04/27 08:17:26;;;;;;;6.82;4.65;;;14.80;97.80;;;;;;5040171;28;20041;-79
2021/04/27 08:19:52;;;;;;;6.43;5.05;;;14.90;97.80;;;;;;5047636;28;20108;-78
2021/04/27 08:22:18;;;;;;;9.65;5.25;;;15.00;97.50;;;;;;5043881;28;20059;-79
2021/04/27 08:24:45;;;;;;;10.95;4.85;;;15.00;97.50;;;;;;5034701;28;20028;-78
2021/04/27 08:27:16;;;;;;;11.52;4.55;;;15.20;97.00;;;;;;5037393;28;20091;-79
2021/04/27 08:29:43;;;;;;;8.48;5.05;;;15.20;96.70;;;;;;5049792;28;20090;-79
2021/04/27 08:32:11;;;;;;;8.82;4.93;;;15.30;96.60;;;;;;5049762;28;20423;-80
2021/04/27 08:34:37;;;;;;;9.13;4.50;;;15.40;96.50;;;;;;5053265;28;20053;-80
2021/04/27 08:37:03;;;;;;;6.40;4.90;;;15.60;96.50;;;;;;5046835;28;20034;-79
2021/04/27 08:39:29;;;;;;;6.30;4.25;;;15.70;95.80;;;;;;5047740;28;20025;-79
2021/04/27 08:41:55;;;;;;;6.45;4.43;;;15.80;95.70;;;;;;5047325;28;20090;-79
2021/04/27 08:44:21;;;;;;;8.77;4.78;;;15.90;95.20;;;;;;5045233;28;20551;-78
2021/04/27 08:46:47;;;;;;;7.90;4.20;;;15.90;95.80;;;;;;5048426;28;20095;-77
2021/04/27 08:49:13;;;;;;;8.85;4.30;;;16.00;95.50;;;;;;5044518;28;20021;-79
2021/04/27 08:51:39;;;;;;;9.93;4.68;;;16.10;95.00;;;;;;5050416;28;20069;-79
2021/04/27 08:54:06;;;;;;;7.90;3.92;;;16.10;94.50;;;;;;5034959;28;20049;-79
2021/04/27 08:56:32;;;;;;;6.15;3.92;;;16.20;94.40;;;;;;5049667;28;20040;-79
2021/04/27 08:58:58;;;;;;;5.57;3.80;;;16.20;94.70;;;;;;5044206;28;20051;-79
2021/04/27 09:01:24;;;;;;;6.72;3.88;;;16.30;94.10;;;;;;5047865;28;20381;-78
2021/04/27 09:03:51;;;;;;;8.52;4.07;;;16.40;94.40;;;;;;5041594;28;20022;-78
2021/04/27 09:06:20;;;;;;;7.30;4.07;;;16.60;93.90;;;;;;5034209;28;20033;-78
2021/04/27 09:08:50;;;;;;;4.30;3.47;;;16.70;93.30;;;;;;5044102;28;20029;-78
2021/04/27 09:11:32;;;;;;;6.43;3.78;;;16.90;93.40;;;;;;5049886;28;20028;-79
2021/04/27 09:14:07;;;;;;;5.80;3.70;;;17.20;93.00;;;;;;5042059;28;20128;-80
2021/04/27 09:16:33;;;;;;;5.35;3.42;;;17.30;92.20;;;;;;5037370;28;20025;-78
2021/04/27 09:18:59;;;;;;;4.32;3.42;;;17.40;92.50;;;;;;5042989;28;20468;-79
2021/04/27 09:21:33;;;;;;;8.02;3.40;;;17.60;91.90;;;;;;5048381;28;20048;-79
2021/04/27 09:24:10;;;;;;;4.15;3.15;;;17.80;91.90;;;;;;5043969;28;20150;-79
2021/04/27 09:26:36;;;;;;;6.25;3.42;;;18.00;91.50;;;;;;5050015;28;20029;-79
2021/04/27 09:29:01;;;;;;;4.78;3.00;;;18.00;90.40;;;;;;5044536;28;20094;-79
2021/04/27 09:31:38;;;;;;;7.13;3.08;;;18.00;90.20;;;;;;5048562;28;20033;-79
2021/04/27 09:34:27;;;;;;;6.72;3.40;;;18.10;90.60;;;;;;5044876;28;20387;-79
2021/04/27 09:37:05;;;;;;;3.50;2.70;;;18.20;90.10;;;;;;5047515;28;20487;-79
2021/04/27 09:39:39;;;;;;;4.00;2.97;;;18.30;89.80;;;;;;5047666;28;20021;-79
2021/04/27 09:42:15;;;;;;;4.50;2.92;;;18.40;88.90;;;;;;5049366;28;20163;-80
2021/04/27 09:44:49;;;;;;;3.75;2.80;;;18.40;88.90;;;;;;5035774;28;20025;-79
2021/04/27 09:47:22;;;;;;;10.80;2.85;;;18.50;88.50;;;;;;5039668;28;20028;-79
2021/04/27 09:50:05;;;;;;;5.70;2.90;;;18.60;88.90;;;;;;5064571;28;20009;-80
2021/04/27 09:52:33;;;;;;;3.58;2.50;;;18.80;86.20;;;;;;5064933;28;20039;-79
2021/04/27 09:55:03;;;;;;;5.32;3.10;;;18.80;85.50;;;;;;5037613;28;20025;-79
2021/04/27 09:57:32;;;;;;;7.90;2.80;;;19.00;85.80;;;;;;5043087;28;20022;-79
2021/04/27 10:00:20;;;;;;;4.53;2.80;;;18.90;84.90;;;;;;5070231;28;20037;-80
2021/04/27 10:02:46;;;;;;;3.47;2.55;;;18.80;85.10;;;;;;5065659;28;20036;-79
2021/04/27 10:05:12;;;;;;;3.58;2.70;;;18.50;84.80;;;;;;5031087;28;20026;-79
2021/04/27 10:07:40;;;;;;;4.43;2.47;;;18.40;85.60;;;;;;5042877;28;20078;-79
2021/04/27 10:10:12;;;;;;;3.17;2.25;;;18.10;86.30;;;;;;5036914;28;20052;-78
2021/04/27 10:12:41;;;;;;;2.78;2.08;;;18.20;86.60;;;;;;5048838;28;20024;-78
2021/04/27 10:15:09;;;;;;;4.85;2.50;;;18.20;85.80;;;;;;5032207;28;20044;-79
2021/04/27 10:17:35;;;;;;;2.33;2.05;;;18.30;86.50;;;;;;5036782;28;20108;-79
2021/04/27 10:20:06;;;;;;;3.35;2.40;;;18.10;87.60;;;;;;5050523;28;20028;-79
2021/04/27 10:22:33;;;;;;;3.67;2.28;;;18.20;85.50;;;;;;5040516;28;20048;-78
2021/04/27 10:24:59;;;;;;;3.10;2.30;;;18.30;83.90;;;;;;5049937;28;20020;-79
2021/04/27 10:27:27;;;;;;;6.73;2.37;;;18.40;84.40;;;;;;5041958;28;20030;-80
2021/04/27 10:30:17;;;;;;;2.90;2.03;;;18.70;84.30;;;;;;5049203;28;20773;-79
2021/04/27 10:33:06;;;;;;;2.97;1.83;;;19.00;82.00;;;;;;5045360;28;20091;-78
2021/04/27 10:35:40;;;;;;;4.50;1.85;;;19.00;82.60;;;;;;5011611;28;20037;-79
2021/04/27 10:38:09;;;;;;;1.95;1.60;;;19.00;81.00;;;;;;5043047;28;20565;-78
2021/04/27 10:40:42;;;;;;;3.75;2.17;;;18.90;81.10;;;;;;5050926;28;20029;-80
2021/04/27 10:43:23;;;;;;;3.53;2.50;;;18.70;81.20;;;;;;5039628;28;20206;-79
2021/04/27 10:46:30;;;;;;;3.05;2.03;;;18.70;81.40;;;;;;5049810;28;20033;-79
2021/04/27 10:49:16;;;;;;;3.47;1.98;;;18.70;82.20;;;;;;5037178;28;20068;-79
2021/04/27 10:51:42;;;;;;;3.22;2.03;;;18.80;83.40;;;;;;5049147;28;20025;-79
2021/04/27 10:54:16;;;;;;;4.25;2.20;;;18.80;82.00;;;;;;5042451;28;20511;-79
2021/04/27 10:56:49;;;;;;;2.65;1.80;;;18.90;82.50;;;;;;5047234;28;20021;-79
2021/04/27 10:59:17;;;;;;;2.40;1.70;;;19.10;82.40;;;;;;5043338;28;20025;-79
2021/04/27 11:01:45;;;;;;;5.40;1.85;;;19.20;81.30;;;;;;5046316;28;20055;-78
2021/04/27 11:04:32;;;;;;;2.65;1.85;;;19.10;82.00;;;;;;5042722;28;20024;-80
2021/04/27 11:07:12;;;;;;;2.78;1.60;;;19.10;80.30;;;;;;5044133;28;20515;-80
2021/04/27 11:09:39;;;;;;;3.45;1.48;;;18.90;81.10;;;;;;5035019;28;20029;-80
2021/04/27 11:12:32;;;;;;;2.97;1.90;;;18.70;80.80;;;;;;5036240;28;20116;-78
2021/04/27 11:15:00;;;;;;;2.10;1.40;;;18.50;80.80;;;;;;5047912;28;20033;-78
2021/04/27 11:17:28;;;;;;;2.00;1.80;;;18.30;82.00;;;;;;5040978;28;20021;-78
2021/04/27 11:19:54;;;;;;;5.80;1.65;;;18.40;82.40;;;;;;5048495;28;20021;-79
2021/04/27 11:22:29;;;;;;;3.45;1.42;;;18.40;81.90;;;;;;5041403;28;20052;-79
2021/04/27 11:24:55;;;;;;;2.67;1.30;;;18.60;82.30;;;;;;5048229;28;20017;-77
2021/04/27 11:27:22;;;;;;;4.10;1.73;;;18.50;80.90;;;;;;5041420;28;20083;-79
2021/04/27 11:29:57;;;;;;;3.17;1.33;;;18.60;81.20;;;;;;5047789;28;20088;-80
2021/04/27 11:32:22;;;;;;;4.57;1.52;;;18.40;80.90;;;;;;5041232;28;20140;-77
2021/04/27 11:34:57;;;;;;;9.90;1.40;;;18.50;80.70;;;;;;5046420;28;20051;-78
2021/04/27 11:37:35;;;;;;;5.65;1.88;;;18.60;81.50;;;;;;5040619;28;20108;-78
2021/04/27 11:40:31;;;;;;;2.47;1.42;;;18.60;81.30;;;;;;5049121;28;20380;-79
2021/04/27 11:43:04;;;;;;;6.05;1.73;;;18.60;81.10;;;;;;5038066;28;20092;-79
2021/04/27 11:45:36;;;;;;;2.60;1.70;;;18.60;80.80;;;;;;5050724;28;20483;-79
2021/04/27 11:48:02;;;;;;;2.75;1.73;;;18.40;80.90;;;;;;5038464;28;20128;-77
2021/04/27 11:50:33;;;;;;;2.78;1.67;;;18.20;82.20;;;;;;5050112;28;20356;-78
2021/04/27 11:53:12;;;;;;;1.27;1.17;;;18.40;83.00;;;;;;5040239;28;20036;-78
2021/04/27 11:55:42;;;;;;;1.83;1.33;;;18.50;81.10;;;;;;5029751;28;20450;-79
2021/04/27 11:58:32;;;;;;;2.47;1.77;;;18.30;82.00;;;;;;5038901;28;20047;-77
2021/04/27 12:01:08;;;;;;;2.08;1.58;;;18.10;82.20;;;;;;5051525;28;20049;-79
2021/04/27 12:03:41;;;;;;;1.85;1.50;;;18.10;80.90;;;;;;5045425;28;20021;-79
2021/04/27 12:06:07;;;;;;;2.17;1.50;;;18.10;81.90;;;;;;5052122;28;20112;-78
2021/04/27 12:08:37;;;;;;;3.03;1.85;;;18.00;81.10;;;;;;5038386;28;20029;-79
2021/04/27 12:11:29;;;;;;;2.22;1.45;;;18.00;83.40;;;;;;5034794;28;20482;-78
2021/04/27 12:14:12;;;;;;;2.20;1.30;;;18.00;83.70;;;;;;5041046;28;20028;-78
2021/04/27 12:16:42;;;;;;;3.03;2.10;;;18.00;82.00;;;;;;5038826;28;20025;-79
2021/04/27 12:19:09;;;;;;;2.67;1.70;;;18.10;83.10;;;;;;5035653;28;20021;-76
2021/04/27 12:21:40;;;;;;;2.10;1.45;;;18.30;81.30;;;;;;5049989;28;20041;-77
2021/04/27 12:24:12;;;;;;;6.22;1.63;;;18.40;81.20;;;;;;5036076;28;20029;-78
2021/04/27 12:26:40;;;;;;;4.07;1.50;;;18.50;79.70;;;;;;5049909;28;20112;-78
2021/04/27 12:29:07;;;;;;;1.98;1.63;;;18.60;79.80;;;;;;5040857;28;20029;-77
2021/04/27 12:31:34;;;;;;;1.70;1.60;;;18.90;78.40;;;;;;5037858;28;20029;-77
2021/04/27 12:34:03;;;;;;;2.38;1.42;;;19.20;79.10;;;;;;5044288;28;20091;-79
2021/04/27 12:36:36;;;;;;;2.78;1.70;;;19.40;77.20;;;;;;5048933;28;20039;-78
2021/04/27 12:39:08;;;;;;;2.28;1.40;;;19.50;77.50;;;;;;5044555;28;20556;-78
2021/04/27 12:41:45;;;;;;;2.03;1.27;;;19.30;75.20;;;;;;5047791;28;20043;-77
2021/04/27 12:44:40;;;;;;;2.35;1.63;;;19.10;76.90;;;;;;5037479;28;20502;-79
2021/04/27 12:47:14;;;;;;;3.00;1.50;;;19.00;76.20;;;;;;5048534;28;20492;-77